WetterOnline ( https://www.wetteronline.de )

Wetter aktuell Bad Brückenau

Aktuelles Wetter: Wasserkuppe (925m)

6-stündlich | Neueste Meldungen
Ortszeit Temperatur Wetter
Fr, 14.06. 8:00 9.8° C leicht bewölkt
Fr, 14.06. 2:00 8.6° C bedeckt
Do, 13.06. 20:00 10.6° C bewölkt
Do, 13.06. 14:00 14.0° C fast wolkenlos
Do, 13.06. 8:00 6.3° C wolkig
Do, 13.06. 2:00 6.1° C bedeckt
Mi, 12.06. 20:00 9.6° C fast wolkenlos
Mi, 12.06. 14:00 9.3° C bewölkt
Ortszeit Temperatur Wetter
Fr, 14.06. 10:30 10.0° C wolkig
Fr, 14.06. 10:20 10.0° C wolkig
Fr, 14.06. 10:10 10.0° C Sprühregen
Fr, 14.06. 10:00 9.2° C leichter Regen
Fr, 14.06. 9:50 9.2° C leichter Regen
Fr, 14.06. 9:40 9.2° C leichter Regen
Fr, 14.06. 9:30 9.0° C leichter Regen
Fr, 14.06. 9:00 9.0° C leichter Regen
Fr, 14.06. 8:30 9.4° C leichter Regen
Fr, 14.06. 8:00 9.8° C leicht bewölkt
Fr, 14.06. 7:30 9.8° C fast wolkenlos
Ortszeit Relative Feuchte Sichtweite
Fr, 14.06. 8:00 49% 35 km
Fr, 14.06. 2:00 50% 50 km
Do, 13.06. 20:00 49% 40 km
Do, 13.06. 14:00 48% 50 km
Do, 13.06. 8:00 50% 35 km
Do, 13.06. 2:00 50% 50 km
Mi, 12.06. 20:00 49% 50 km
Mi, 12.06. 14:00 49% 40 km
Ortszeit Relative Feuchte Sichtweite
Fr, 14.06. 10:30 49% 40 km
Fr, 14.06. 10:20 49% -
Fr, 14.06. 10:10 49% -
Fr, 14.06. 10:00 50% 19 km
Fr, 14.06. 9:50 50% -
Fr, 14.06. 9:40 50% -
Fr, 14.06. 9:30 49% 24 km
Fr, 14.06. 9:00 49% 27 km
Fr, 14.06. 8:30 50% 45 km
Fr, 14.06. 8:00 49% 35 km
Fr, 14.06. 7:30 49% 50 km
Ortszeit Niederschlagsmenge Niederschlagsart
Fr, 14.06. 8:00 0.1 l/m2 in 12 Std. Regen
Fr, 14.06. 2:00 0.0 l/m2 in 6 Std. -
Do, 13.06. 20:00 0.0 l/m2 in 12 Std. -
Do, 13.06. 14:00 0.0 l/m2 in 6 Std. -
Do, 13.06. 8:00 0.0 l/m2 in 12 Std. -
Do, 13.06. 2:00 0.0 l/m2 in 6 Std. -
Mi, 12.06. 20:00 0.1 l/m2 in 12 Std. Regen
Mi, 12.06. 14:00 0.0 l/m2 in 6 Std. -
Ortszeit Niederschlagsmenge Niederschlagsart
Fr, 14.06. 10:30 <0.05 l/m2 in 30 Min Schneeregen
Fr, 14.06. 10:20 keine Meldung -
Fr, 14.06. 10:10 keine Meldung -
Fr, 14.06. 10:00 0.1 l/m2 in 1 Std. Regen
Fr, 14.06. 9:50 keine Meldung -
Fr, 14.06. 9:40 keine Meldung -
Fr, 14.06. 9:30 <0.05 l/m2 in 30 Min -
Fr, 14.06. 9:00 <0.05 l/m2 in 1 Std. Regen
Fr, 14.06. 8:30 <0.05 l/m2 in 30 Min -
Fr, 14.06. 8:00 <0.05 l/m2 in 1 Std. Regen
Fr, 14.06. 7:30 0.0 l/m2 in 30 Min -
Ortszeit Stärke Spitze Richtung
km/h Bft. km/h Grad Sektor
Fr, 14.06. 8:00 26 4 41 180° S
Fr, 14.06. 2:00 22 4 29 170° S
Do, 13.06. 20:00 9 2 30 210° SW
Do, 13.06. 14:00 14 3 25 240° SW
Do, 13.06. 8:00 11 2 22 40° NO
Do, 13.06. 2:00 7 2 25 290° W
Mi, 12.06. 20:00 17 3 31 310° NW
Mi, 12.06. 14:00 14 3 29 290° W
Ortszeit Stärke Spitze Richtung
km/h Bft. km/h Grad Sektor
Fr, 14.06. 10:30 31 5 44 210° SW
Fr, 14.06. 10:20 31 5 - 210° SW
Fr, 14.06. 10:10 33 5 - 200° S
Fr, 14.06. 10:00 29 5 40 200° S
Fr, 14.06. 9:50 29 5 - 200° S
Fr, 14.06. 9:40 29 5 - 200° S
Fr, 14.06. 9:30 26 4 39 200° S
Fr, 14.06. 9:00 32 5 43 190° S
Fr, 14.06. 8:30 29 5 43 180° S
Fr, 14.06. 8:00 26 4 35 180° S
Fr, 14.06. 7:30 26 4 35 180° S
Ortszeit Untergrenze Bedeckung Gattung
total tief tief mittel hoch
Fr, 14.06. 8:00 1470 m 3/8 3/8 - - -
Fr, 14.06. 2:00 3900 m 8/8 8/8 - - -
Do, 13.06. 20:00 1500 m 7/8 7/8 - - -
Do, 13.06. 14:00 1080 m 1/8 1/8 - - -
Do, 13.06. 8:00 3600 m 5/8 5/8 - - -
Do, 13.06. 2:00 2400 m 8/8 8/8 - - -
Mi, 12.06. 20:00 750 m 1/8 1/8 - - -
Mi, 12.06. 14:00 870 m 7/8 7/8 - - -
Ortszeit Bedeckungsgrad in Achtel und Wolkenuntergrenze
Fr, 14.06. 10:30 1(330m) 5(1290m)
Fr, 14.06. 10:20 1(330m) 5(1290m)
Fr, 14.06. 10:10 2
Fr, 14.06. 10:00 keine Wolken
Fr, 14.06. 9:50 keine Wolken
Fr, 14.06. 9:40 1
Fr, 14.06. 9:30 1(1140m)
Fr, 14.06. 9:00 1(1380m)
Fr, 14.06. 8:30 2(1230m) 3(1470m)
Fr, 14.06. 8:00 2(1470m) 3(1800m)
Fr, 14.06. 7:30 1(1500m)
Ortszeit Stationsdruck (hPa) Tendenz (hPa in 3 Std.)
Fr, 14.06. 8:00 906 - 1,0
Fr, 14.06. 2:00 909 - 1,1
Do, 13.06. 20:00 911 - 0,4
Do, 13.06. 14:00 911 - 0,6
Do, 13.06. 8:00 912 + 0,5
Do, 13.06. 2:00 912 - 0,1
Mi, 12.06. 20:00 911 - 0,3
Mi, 12.06. 14:00 912 + 0,1
Ortszeit Stationsdruck (hPa) Tendenz (hPa in 3 Std.)
Fr, 14.06. 10:30 907 0,0
Fr, 14.06. 10:20 907 keine Meldung
Fr, 14.06. 10:10 906 keine Meldung
Fr, 14.06. 10:00 906 - 0,2
Fr, 14.06. 9:50 906 keine Meldung
Fr, 14.06. 9:40 906 keine Meldung
Fr, 14.06. 9:30 906 - 0,2
Fr, 14.06. 9:00 906 - 0,4
Fr, 14.06. 8:30 906 - 0,8
Fr, 14.06. 8:00 906 - 1,0
Fr, 14.06. 7:30 907 - 1,0
Ortszeit Schneehöhe (cm)
Fr, 14.06. 8:00 0
Fr, 14.06. 2:00 0
Do, 13.06. 20:00 0
Do, 13.06. 14:00 0
Do, 13.06. 8:00 0
Do, 13.06. 2:00 0
Mi, 12.06. 20:00 0
Mi, 12.06. 14:00 0
Ortszeit Schneehöhe (cm)
Fr, 14.06. 10:30 0
Fr, 14.06. 10:20 0
Fr, 14.06. 10:10 -
Fr, 14.06. 10:00 0
Fr, 14.06. 9:50 0
Fr, 14.06. 9:40 -
Fr, 14.06. 9:30 0
Fr, 14.06. 9:00 0
Fr, 14.06. 8:30 0
Fr, 14.06. 8:00 0
Fr, 14.06. 7:30 0
Link zu dieser Seite / Seite empfehlen

Das Wetter in ...